createdAt,value
2022-09-22T00:00:57.166Z,78.19
2022-09-22T00:01:57.441Z,77.98
2022-09-22T00:02:57.709Z,78.09
2022-09-22T00:03:57.947Z,77.98
2022-09-22T00:04:58.186Z,78.09
2022-09-22T00:05:58.394Z,77.98
2022-09-22T00:06:58.716Z,78.29
2022-09-22T00:07:59.052Z,78.29
2022-09-22T00:08:59.455Z,77.98
2022-09-22T00:09:59.730Z,78.29
2022-09-22T00:10:59.951Z,78.19
2022-09-22T00:12:00.260Z,78.19
2022-09-22T00:13:00.599Z,78.29
2022-09-22T00:14:00.931Z,78.64
2022-09-22T00:15:01.282Z,78.53
2022-09-22T00:16:01.525Z,78.53
2022-09-22T00:17:01.753Z,78.85
2022-09-22T00:18:02.093Z,78.64
2022-09-22T00:19:02.412Z,78.74
2022-09-22T00:20:02.775Z,78.85
2022-09-22T00:21:06.823Z,78.94
2022-09-22T00:22:03.343Z,78.85
2022-09-22T00:23:03.560Z,78.85
2022-09-22T00:24:03.895Z,78.64
2022-09-22T00:25:04.212Z,78.64
2022-09-22T00:26:04.522Z,78.64
2022-09-22T00:27:04.869Z,78.85
2022-09-22T00:28:05.078Z,78.94
2022-09-22T00:29:05.291Z,79.15
2022-09-22T00:30:05.619Z,79.15
2022-09-22T00:31:06.051Z,78.85
2022-09-22T00:32:07.551Z,78.94
2022-09-22T00:33:06.490Z,78.94
2022-09-22T00:34:06.859Z,78.94
2022-09-22T00:35:07.130Z,78.94
2022-09-22T00:36:07.355Z,79.05
2022-09-22T00:37:11.499Z,79.36
2022-09-22T00:38:08.003Z,79.80
2022-09-22T00:39:08.372Z,79.25
2022-09-22T00:40:08.630Z,79.15
2022-09-22T00:41:08.874Z,79.39
2022-09-22T00:42:09.211Z,79.39
2022-09-22T00:43:09.532Z,79.70
2022-09-22T00:44:09.860Z,79.91
2022-09-22T00:45:10.068Z,79.80
2022-09-22T00:46:14.256Z,80.11
2022-09-22T00:47:10.645Z,80.11
2022-09-22T00:48:10.963Z,80.11
2022-09-22T00:49:11.327Z,79.60
2022-09-22T00:50:15.390Z,80.01
2022-09-22T00:51:11.768Z,79.60
2022-09-22T00:52:12.106Z,79.70
2022-09-22T02:56:31.195Z,82.14
2022-09-22T02:57:32.451Z,81.83
2022-09-22T02:58:31.772Z,81.93
2022-09-22T02:59:32.035Z,82.18
2022-09-22T03:00:32.269Z,82.48
2022-09-22T03:01:32.637Z,82.69
2022-09-22T03:02:32.795Z,82.39
2022-09-22T03:03:33.048Z,82.59
2022-09-22T03:04:33.359Z,82.79
2022-09-22T03:05:33.641Z,82.59
2022-09-22T03:06:33.908Z,83.11
2022-09-22T03:07:34.162Z,82.90
2022-09-22T03:08:34.430Z,82.69
2022-09-22T03:09:34.673Z,82.69
2022-09-22T03:10:34.911Z,82.69
2022-09-22T03:11:35.156Z,83.00
2022-09-22T03:12:35.399Z,82.59
2022-09-22T03:13:35.672Z,82.59
2022-09-22T03:14:35.904Z,82.69
2022-09-22T03:15:36.189Z,82.59
2022-09-22T03:16:36.502Z,82.69
2022-09-22T03:17:36.721Z,82.69
2022-09-22T03:18:36.987Z,83.00
2022-09-22T03:19:37.207Z,83.00
2022-09-22T03:20:37.444Z,83.00
2022-09-22T03:21:37.773Z,82.90
2022-09-22T03:22:38.005Z,83.20
2022-09-22T03:23:38.364Z,82.83
2022-09-22T03:24:38.587Z,83.11
2022-09-22T03:25:38.831Z,83.31
2022-09-22T03:26:39.056Z,83.00
2022-09-22T03:27:39.407Z,82.90
2022-09-22T03:28:39.635Z,82.90
2022-09-22T03:29:39.868Z,83.00
2022-09-22T03:30:40.122Z,82.69
2022-09-22T03:31:40.360Z,82.39
2022-09-22T03:32:40.625Z,82.69
2022-09-22T03:33:40.866Z,82.69
2022-09-22T03:34:41.090Z,82.69
2022-09-22T03:35:41.430Z,83.11
2022-09-22T03:36:41.651Z,83.20
2022-09-22T03:37:42.006Z,83.04
2022-09-22T03:38:42.259Z,82.83
2022-09-22T03:39:42.482Z,83.04
2022-09-22T03:40:42.801Z,82.93
2022-09-22T03:41:43.043Z,82.93
2022-09-22T03:42:43.283Z,83.14
2022-09-22T03:43:43.509Z,83.35
2022-09-22T03:44:43.742Z,83.25
2022-09-22T03:45:44.040Z,83.14
2022-09-22T03:46:44.273Z,83.35
2022-09-22T03:47:44.496Z,83.04
2022-09-22T03:48:45.461Z,83.25
2022-09-22T03:49:45.051Z,83.55
2022-09-22T03:50:45.311Z,83.55
2022-09-22T03:51:45.555Z,83.35
2022-09-22T03:52:45.798Z,83.14
2022-09-22T03:53:46.071Z,83.25
2022-09-22T03:54:46.319Z,83.04
2022-09-22T03:55:46.568Z,83.14
2022-09-22T03:56:46.811Z,83.04
2022-09-22T03:57:47.028Z,83.04
2022-09-22T03:58:47.262Z,83.35
2022-09-22T03:59:47.593Z,83.45
2022-09-22T04:00:47.843Z,83.35
2022-09-22T04:01:48.131Z,83.76
2022-09-22T04:02:48.490Z,83.55
2022-09-22T04:03:48.724Z,83.76
2022-09-22T04:04:49.063Z,83.55
2022-09-22T04:05:49.422Z,83.55
2022-09-22T04:06:49.681Z,83.49
2022-09-22T04:07:49.955Z,83.70
2022-09-22T04:08:50.217Z,83.90
2022-09-22T04:09:50.435Z,83.90
2022-09-22T04:10:50.674Z,84.11
2022-09-22T04:11:50.896Z,84.00
2022-09-22T04:12:51.215Z,83.80
2022-09-22T04:13:51.578Z,84.00
2022-09-22T04:14:51.801Z,83.90
2022-09-22T04:15:52.046Z,83.59
2022-09-22T04:16:52.334Z,83.59
2022-09-22T04:17:52.611Z,83.49
2022-09-22T04:18:52.854Z,83.70
2022-09-22T04:19:53.092Z,83.65
2022-09-22T04:20:53.366Z,83.35
2022-09-22T04:21:57.206Z,82.93
2022-09-22T04:22:53.903Z,83.28
2022-09-22T04:23:54.136Z,83.04
2022-09-22T04:24:54.359Z,83.14
2022-09-22T04:25:54.622Z,82.73
2022-09-22T04:27:18.426Z,82.93
2022-09-22T04:27:56.252Z,83.04
2022-09-22T04:28:55.538Z,83.28
2022-09-22T04:29:55.761Z,83.49
2022-09-22T04:30:56.025Z,83.90
2022-09-22T04:31:56.280Z,83.90
2022-09-22T04:32:56.535Z,84.00
2022-09-22T04:33:56.764Z,84.00
2022-09-22T04:34:56.987Z,84.21
2022-09-22T04:35:57.214Z,84.05
2022-09-22T04:36:57.437Z,84.14
2022-09-22T04:37:57.783Z,84.14
2022-09-22T04:38:58.112Z,84.35
2022-09-22T04:39:58.262Z,84.14
2022-09-22T04:40:58.561Z,84.35
2022-09-22T04:41:58.779Z,84.45
2022-09-22T04:42:59.012Z,84.45
2022-09-22T04:43:59.245Z,84.45
2022-09-22T04:44:59.478Z,84.45
2022-09-22T04:45:59.781Z,84.66
2022-09-22T04:47:00.020Z,84.45
2022-09-22T04:48:00.348Z,84.77
2022-09-22T04:49:00.602Z,84.87
2022-09-22T04:50:00.834Z,84.87
2022-09-22T04:51:01.214Z,84.77
2022-09-22T04:52:01.457Z,84.80
2022-09-22T04:53:01.705Z,85.11
2022-09-22T04:54:01.918Z,85.42
2022-09-22T04:55:02.146Z,84.97
2022-09-22T04:56:02.470Z,84.80
2022-09-22T04:57:02.809Z,84.91
2022-09-22T04:58:03.042Z,84.80
2022-09-22T04:59:03.274Z,84.80
2022-09-22T05:00:03.498Z,84.80
2022-09-22T05:01:03.832Z,85.01
2022-09-22T05:02:06.041Z,84.80
2022-09-22T05:03:06.112Z,84.80
2022-09-22T05:04:04.516Z,84.80
2022-09-22T05:05:04.731Z,84.70
2022-09-22T05:06:05.073Z,84.91
2022-09-22T05:07:05.340Z,85.01
2022-09-22T05:08:05.584Z,84.80
2022-09-22T05:09:05.977Z,84.59
2022-09-22T05:10:06.170Z,84.59
2022-09-22T05:11:06.409Z,84.70
2022-09-22T05:12:06.677Z,84.70
2022-09-22T05:13:06.927Z,84.49
2022-09-22T05:14:07.158Z,84.39
2022-09-22T05:15:09.201Z,84.49
2022-09-22T05:16:07.714Z,84.59
2022-09-22T05:17:07.993Z,84.80
2022-09-22T05:18:08.227Z,84.80
2022-09-22T05:19:08.454Z,85.01
2022-09-22T05:20:08.678Z,84.80
2022-09-22T05:21:08.915Z,85.01
2022-09-22T05:22:09.174Z,84.59
2022-09-22T05:23:09.417Z,84.59
2022-09-22T05:24:09.647Z,84.70
2022-09-22T05:25:09.878Z,85.01
2022-09-22T05:26:10.127Z,84.80
2022-09-22T05:27:10.374Z,84.59
2022-09-22T05:28:10.597Z,84.59
2022-09-22T05:29:10.931Z,84.49
2022-09-22T05:30:11.254Z,84.49
2022-09-22T05:31:11.489Z,84.29
2022-09-22T05:32:11.786Z,84.59
2022-09-22T05:33:14.788Z,84.25
2022-09-22T05:34:12.280Z,83.94
2022-09-22T05:35:12.526Z,83.84
2022-09-22T05:36:12.754Z,83.73
2022-09-22T05:37:13.033Z,83.94
2022-09-22T05:38:13.290Z,84.25
2022-09-22T05:39:13.530Z,84.05
2022-09-22T05:40:15.652Z,83.94
2022-09-22T05:41:14.040Z,84.05
2022-09-22T05:42:14.268Z,84.14
2022-09-22T05:43:14.536Z,84.35
2022-09-22T05:44:14.784Z,84.25
2022-09-22T05:45:15.068Z,84.14
2022-09-22T05:46:15.324Z,84.25
2022-09-22T05:47:15.574Z,84.14
2022-09-22T05:48:15.797Z,84.35
2022-09-22T05:49:16.101Z,84.35
2022-09-22T05:50:16.465Z,84.14
2022-09-22T05:51:16.724Z,84.05
2022-09-22T05:52:16.956Z,84.14
2022-09-22T05:53:17.184Z,84.00
2022-09-22T05:54:22.526Z,84.11
2022-09-22T05:55:18.880Z,84.31
2022-09-22T05:56:18.198Z,84.52
2022-09-22T05:57:18.434Z,83.90
2022-09-22T05:58:18.772Z,83.59
2022-09-22T05:59:18.986Z,83.90
2022-09-22T06:00:19.235Z,83.70
2022-09-22T06:01:19.619Z,83.59
2022-09-22T06:02:25.944Z,83.55
2022-09-22T06:03:20.981Z,83.45
2022-09-22T06:04:20.272Z,83.14
2022-09-22T06:05:20.499Z,82.83
2022-09-22T06:06:20.734Z,82.48
2022-09-22T06:07:21.016Z,82.04
2022-09-22T06:08:21.294Z,81.62
2022-09-22T06:09:21.524Z,81.07
2022-09-22T06:10:21.878Z,80.87
2022-09-22T06:11:22.114Z,80.46
2022-09-22T06:12:24.182Z,80.32
2022-09-22T06:13:22.646Z,80.21
2022-09-22T06:14:22.884Z,80.01
2022-09-22T06:15:23.107Z,79.77
2022-09-22T06:16:23.521Z,78.85
2022-09-22T06:17:23.649Z,78.43
2022-09-22T06:18:25.043Z,78.43
2022-09-22T06:19:24.301Z,78.50
2022-09-22T06:20:24.540Z,78.39
2022-09-22T06:21:24.784Z,78.50
2022-09-22T06:22:25.052Z,78.39
2022-09-22T06:23:25.294Z,77.88
2022-09-22T06:24:25.558Z,77.88
2022-09-22T06:25:25.785Z,77.88
2022-09-22T06:26:26.144Z,77.88
2022-09-22T06:27:26.389Z,77.95
2022-09-22T06:28:26.615Z,77.84
2022-09-22T06:29:26.896Z,77.74
2022-09-22T06:30:27.130Z,77.74
2022-09-22T06:31:27.437Z,77.44
2022-09-22T06:32:27.704Z,77.33
2022-09-22T06:33:27.952Z,77.64
2022-09-22T06:34:28.952Z,77.20
2022-09-22T06:35:28.485Z,77.50
2022-09-22T06:36:28.763Z,77.40
2022-09-22T06:37:28.986Z,77.09
2022-09-22T06:38:29.315Z,76.54
2022-09-22T06:39:29.552Z,76.54
2022-09-22T06:40:29.834Z,76.85
2022-09-22T06:41:30.126Z,76.40
2022-09-22T06:42:32.192Z,75.38
2022-09-22T06:43:30.650Z,75.48
2022-09-22T06:44:30.903Z,75.28
2022-09-22T06:45:31.284Z,74.73
2022-09-22T06:46:31.485Z,74.43
2022-09-22T06:47:31.719Z,74.32
2022-09-22T06:48:31.944Z,74.22
2022-09-22T06:49:32.219Z,74.43
2022-09-22T06:50:32.579Z,74.63
2022-09-22T06:51:32.766Z,75.24
2022-09-22T06:52:35.806Z,75.65
2022-09-22T06:53:33.248Z,75.35
2022-09-22T06:54:33.512Z,75.31
2022-09-22T06:55:33.760Z,74.80
2022-09-22T06:56:37.062Z,74.46
2022-09-22T06:57:34.296Z,74.26
2022-09-22T06:58:52.349Z,73.91
2022-09-22T06:59:35.776Z,73.71
2022-09-22T07:00:35.136Z,73.61
2022-09-22T07:01:35.426Z,73.44
2022-09-22T07:02:35.537Z,73.64
2022-09-22T07:03:35.785Z,74.05
2022-09-22T07:04:36.048Z,74.05
2022-09-22T07:05:36.282Z,74.56
2022-09-22T07:06:36.549Z,74.76
2022-09-22T07:07:36.762Z,74.90
2022-09-22T07:08:37.081Z,75.31
2022-09-22T07:09:37.425Z,75.52
2022-09-22T07:10:39.532Z,75.01
2022-09-22T07:11:40.311Z,74.49
2022-09-22T07:12:38.422Z,74.26
2022-09-22T07:13:38.651Z,73.40
2022-09-22T07:14:38.897Z,72.86
2022-09-22T07:15:39.135Z,72.41
2022-09-22T07:16:39.431Z,71.67
2022-09-22T07:17:39.581Z,70.64
2022-09-22T07:18:39.814Z,71.19
2022-09-22T07:19:40.047Z,71.91
2022-09-22T07:20:40.401Z,72.00
2022-09-22T07:21:41.440Z,72.45
2022-09-22T07:22:42.798Z,72.65
2022-09-22T07:23:41.269Z,72.65
2022-09-22T07:24:41.490Z,72.86
2022-09-22T07:25:41.718Z,72.75
2022-09-22T07:26:42.011Z,73.57
2022-09-22T07:27:42.239Z,74.69
2022-09-22T07:28:42.463Z,74.80
2022-09-22T07:29:42.711Z,75.00
2022-09-22T07:30:44.763Z,74.69
2022-09-22T07:31:43.513Z,73.06
2022-09-22T07:32:43.540Z,73.13
2022-09-22T07:33:43.769Z,73.13
2022-09-22T07:34:44.123Z,72.31
2022-09-22T07:35:44.333Z,72.41
2022-09-22T07:36:44.695Z,72.52
2022-09-22T07:37:44.918Z,72.41
2022-09-22T07:38:45.157Z,72.72
2022-09-22T07:39:45.384Z,72.41
2022-09-22T07:40:45.654Z,73.13
2022-09-22T07:41:45.935Z,72.79
2022-09-22T07:42:46.139Z,72.28
2022-09-22T07:43:46.510Z,72.04
2022-09-22T07:44:46.747Z,71.39
2022-09-22T07:45:46.969Z,70.78
2022-09-22T07:46:47.274Z,70.68
2022-09-22T07:47:47.436Z,70.75
2022-09-22T07:48:47.802Z,70.75
2022-09-22T07:49:48.075Z,70.54
2022-09-22T07:50:48.295Z,70.14
2022-09-22T07:51:48.517Z,70.34
2022-09-22T07:52:50.640Z,70.85
2022-09-22T07:53:49.079Z,70.41
2022-09-22T07:54:50.109Z,68.78
2022-09-22T07:55:49.646Z,68.75
2022-09-22T07:56:49.866Z,68.95
2022-09-22T07:57:50.093Z,69.15
2022-09-22T07:58:50.459Z,68.95
2022-09-22T07:59:50.674Z,69.36
2022-09-22T08:00:51.087Z,69.53
2022-09-22T08:01:51.366Z,69.63
2022-09-22T08:02:51.611Z,69.19
2022-09-22T08:03:51.830Z,69.09
2022-09-22T08:04:52.182Z,68.04
2022-09-22T08:05:52.416Z,68.04
2022-09-22T08:06:52.649Z,67.91
2022-09-22T08:07:52.983Z,68.18
2022-09-22T08:08:53.237Z,67.67
2022-09-22T08:09:53.524Z,67.03
2022-09-22T08:10:53.747Z,66.39
2022-09-22T08:11:53.966Z,64.03
2022-09-22T08:12:54.303Z,64.13
2022-09-22T08:13:56.478Z,63.69
2022-09-22T08:14:54.972Z,63.35
2022-09-22T08:15:55.295Z,63.43
2022-09-22T08:16:55.427Z,62.66
2022-09-22T08:17:55.772Z,60.50
2022-09-22T08:18:55.909Z,60.41
2022-09-22T08:19:56.169Z,60.20
2022-09-22T08:20:56.380Z,59.29
2022-09-22T08:21:56.617Z,60.17
2022-09-22T08:22:56.827Z,59.54
2022-09-22T08:23:57.182Z,59.21
2022-09-22T08:24:58.271Z,58.50
2022-09-22T08:25:57.656Z,58.67
2022-09-22T08:26:58.021Z,58.17
2022-09-22T08:27:58.232Z,58.87
2022-09-22T08:28:59.353Z,58.17
2022-09-22T08:29:58.900Z,57.34
2022-09-22T08:30:59.171Z,56.07
2022-09-22T08:31:59.437Z,55.01
2022-09-22T08:32:59.770Z,54.18
2022-09-22T08:34:00.106Z,53.00
2022-09-22T08:35:00.371Z,51.46
2022-09-22T08:36:00.585Z,50.99
2022-09-22T08:37:00.940Z,49.08
2022-09-22T08:38:01.158Z,47.94
2022-09-22T08:39:01.501Z,46.67
2022-09-22T08:40:01.873Z,45.03
2022-09-22T08:41:01.946Z,43.79
2022-09-22T08:42:02.167Z,42.95
2022-09-22T08:43:02.525Z,42.63
2022-09-22T08:44:02.742Z,42.71
2022-09-22T08:45:03.105Z,41.71
2022-09-22T08:46:03.309Z,40.78
2022-09-22T08:47:03.617Z,40.16
2022-09-22T08:48:03.958Z,39.83
2022-09-22T08:49:04.351Z,39.11
2022-09-22T08:50:04.584Z,38.52
2022-09-22T08:51:04.915Z,37.94
2022-09-22T08:52:05.122Z,38.24
2022-09-22T08:53:05.434Z,38.32
2022-09-22T08:54:05.976Z,38.09
2022-09-22T08:55:06.031Z,36.68
2022-09-22T08:56:06.370Z,36.38
2022-09-22T08:57:06.726Z,36.46
2022-09-22T08:58:06.914Z,36.48
2022-09-22T08:59:07.262Z,36.68
2022-09-22T09:00:07.631Z,36.50
2022-09-22T09:01:07.823Z,37.77
2022-09-22T09:02:08.072Z,36.36
2022-09-22T09:03:08.368Z,35.25
2022-09-22T09:04:08.628Z,34.95
2022-09-22T09:05:08.826Z,35.25
2022-09-22T09:06:09.175Z,34.74
2022-09-22T09:07:09.357Z,35.83
2022-09-22T09:08:09.696Z,35.91
2022-09-22T09:09:10.044Z,34.81
2022-09-22T09:10:10.242Z,34.10
2022-09-22T09:11:10.622Z,34.30
2022-09-22T09:12:10.852Z,33.98
2022-09-22T09:13:11.167Z,33.87
2022-09-22T09:14:11.508Z,33.26
2022-09-22T09:15:13.525Z,33.39
2022-09-22T09:16:11.952Z,34.08
2022-09-22T09:17:12.167Z,34.34
2022-09-22T09:18:12.475Z,32.56
2022-09-22T09:19:12.804Z,32.45
2022-09-22T09:20:13.118Z,32.26
2022-09-22T09:21:13.477Z,32.24
2022-09-22T09:22:13.675Z,32.64
2022-09-22T09:23:13.993Z,32.67
2022-09-22T09:25:24.128Z,32.67
2022-09-22T09:26:15.842Z,33.26
2022-09-22T09:27:15.101Z,32.75
2022-09-22T09:28:15.440Z,31.96
2022-09-22T09:29:15.774Z,33.04
2022-09-22T09:30:16.005Z,33.15
2022-09-22T09:31:16.337Z,32.24
2022-09-22T09:32:16.569Z,32.34
2022-09-22T09:33:16.888Z,32.24
2022-09-22T09:34:17.253Z,32.45
2022-09-22T09:35:17.469Z,33.33
2022-09-22T09:36:17.851Z,32.24
2022-09-22T09:37:18.062Z,32.03
2022-09-22T09:38:18.376Z,32.80
2022-09-22T09:39:18.681Z,31.13
2022-09-22T09:40:19.025Z,31.32
2022-09-22T09:41:19.291Z,31.72
2022-09-22T09:42:19.525Z,30.71
2022-09-22T09:43:19.796Z,30.82
2022-09-22T09:44:20.442Z,31.72
2022-09-22T09:45:20.339Z,31.31
2022-09-22T09:46:20.676Z,31.67
2022-09-22T09:47:20.947Z,30.19
2022-09-22T09:48:21.152Z,30.71
2022-09-22T09:49:21.469Z,31.21
2022-09-22T09:50:21.791Z,31.83
2022-09-22T09:51:22.140Z,32.16
2022-09-22T09:52:22.343Z,32.26
2022-09-22T09:53:22.653Z,32.72
2022-09-22T09:54:22.981Z,31.23
2022-09-22T09:55:26.624Z,31.67
2022-09-22T09:56:23.613Z,32.26
2022-09-22T09:57:30.840Z,32.65
2022-09-22T09:58:25.144Z,32.52
2022-09-22T09:59:24.390Z,32.54
2022-09-22T10:00:24.703Z,32.95
2022-09-22T10:01:25.092Z,31.83
2022-09-22T10:02:25.330Z,32.35
2022-09-22T10:03:25.561Z,32.14
2022-09-22T10:04:25.771Z,31.83
2022-09-22T10:05:26.099Z,32.64
2022-09-22T10:06:26.463Z,31.93
2022-09-22T10:07:26.731Z,31.65
2022-09-22T10:08:26.929Z,32.13
2022-09-22T10:09:27.268Z,31.76
2022-09-22T10:10:27.603Z,32.28
2022-09-22T10:11:27.806Z,32.26
2022-09-22T10:12:28.132Z,33.09
2022-09-22T10:13:28.472Z,32.73
2022-09-22T10:14:28.776Z,31.51
2022-09-22T10:15:29.135Z,31.11
2022-09-22T10:16:29.344Z,31.75
2022-09-22T10:17:29.689Z,32.75
2022-09-22T10:18:29.915Z,32.62
2022-09-22T10:19:30.112Z,31.70
2022-09-22T10:20:30.451Z,31.10
2022-09-22T10:21:30.655Z,31.18
2022-09-22T10:22:30.964Z,32.11
2022-09-22T10:23:31.257Z,32.52
2022-09-22T10:24:31.723Z,32.70
2022-09-22T10:25:31.863Z,35.24
2022-09-22T10:26:32.058Z,37.21
2022-09-22T10:27:32.438Z,39.40
2022-09-22T10:28:32.643Z,41.16
2022-09-22T10:29:33.814Z,41.99
2022-09-22T10:30:33.328Z,43.49
2022-09-22T10:31:33.671Z,41.93
2022-09-22T10:32:33.883Z,40.82
2022-09-22T10:33:34.187Z,41.00
2022-09-22T10:34:34.641Z,39.78
2022-09-22T10:35:34.778Z,40.03
2022-09-22T10:36:35.082Z,38.10
2022-09-22T10:37:35.397Z,37.47
2022-09-22T10:38:35.753Z,36.31
2022-09-22T10:39:35.979Z,35.27
2022-09-22T10:40:36.412Z,34.50
2022-09-22T10:41:36.516Z,33.64
2022-09-22T10:42:36.825Z,33.03
2022-09-22T10:43:37.169Z,32.10
2022-09-22T10:44:40.962Z,31.66
2022-09-22T10:45:38.712Z,30.43
2022-09-22T10:46:38.026Z,30.79
2022-09-22T10:47:38.256Z,31.90
2022-09-22T10:48:38.569Z,31.20
2022-09-22T10:49:38.893Z,31.79
2022-09-22T10:50:39.207Z,32.18
2022-09-22T10:51:39.566Z,31.25
2022-09-22T10:52:39.774Z,31.38
2022-09-22T10:53:40.087Z,31.35
2022-09-22T10:54:40.457Z,30.43
2022-09-22T10:55:40.684Z,30.11
2022-09-22T10:56:41.013Z,29.60
2022-09-22T10:57:41.372Z,29.90
2022-09-22T10:58:41.566Z,29.38
2022-09-22T10:59:41.980Z,29.38
2022-09-22T11:00:42.221Z,29.25
2022-09-22T11:01:42.615Z,28.25
2022-09-22T11:02:42.876Z,27.15
2022-09-22T11:03:43.175Z,27.65
2022-09-22T11:04:43.445Z,27.66
2022-09-22T11:05:43.664Z,27.55
2022-09-22T11:06:43.989Z,27.93
2022-09-22T11:07:44.302Z,27.81
2022-09-22T11:08:45.464Z,26.62
2022-09-22T11:09:45.011Z,27.16
2022-09-22T11:10:45.214Z,27.94
2022-09-22T11:11:45.531Z,27.45
2022-09-22T11:12:45.846Z,27.36
2022-09-22T11:13:46.174Z,27.86
2022-09-22T11:14:46.533Z,28.99
2022-09-22T11:15:46.898Z,29.80
2022-09-22T11:16:47.090Z,29.77
2022-09-22T11:17:47.398Z,29.44
2022-09-22T11:18:47.732Z,27.86
2022-09-22T11:19:48.063Z,27.17
2022-09-22T11:20:48.379Z,28.00
2022-09-22T11:21:48.683Z,28.59
2022-09-22T11:22:48.987Z,29.59
2022-09-22T11:23:49.385Z,29.59
2022-09-22T11:24:49.644Z,29.17
2022-09-22T11:25:49.999Z,28.45
2022-09-22T11:26:51.063Z,28.44
2022-09-22T11:27:50.429Z,28.42
2022-09-22T11:28:54.910Z,27.93
2022-09-22T11:29:52.070Z,26.82
2022-09-22T11:30:53.239Z,26.54
2022-09-22T11:31:51.553Z,27.17
2022-09-22T11:32:51.863Z,27.77
2022-09-22T11:33:52.191Z,28.47
2022-09-22T11:34:52.499Z,27.36
2022-09-22T11:35:52.803Z,26.86
2022-09-22T11:36:53.093Z,27.75
2022-09-22T11:37:53.434Z,27.13
2022-09-22T11:38:53.733Z,27.55
2022-09-22T11:39:54.047Z,28.05
2022-09-22T11:40:54.427Z,27.65
2022-09-22T11:41:54.636Z,28.12
2022-09-22T11:42:54.937Z,27.73
2022-09-22T11:43:58.498Z,26.95
2022-09-22T11:44:55.573Z,26.78
2022-09-22T11:45:55.934Z,27.45
2022-09-22T11:46:57.119Z,27.72
2022-09-22T11:47:56.497Z,27.51
2022-09-22T11:48:56.815Z,26.93
2022-09-22T11:49:57.108Z,27.05
2022-09-22T11:50:57.417Z,27.97
2022-09-22T11:51:57.715Z,28.16
2022-09-22T11:52:59.015Z,28.55
2022-09-22T11:53:58.284Z,28.99
2022-09-22T11:55:00.556Z,28.65
2022-09-22T11:55:58.920Z,27.64
2022-09-22T11:56:59.231Z,26.02
2022-09-22T11:57:59.557Z,25.81
2022-09-22T11:58:59.861Z,25.73
2022-09-22T12:00:00.195Z,26.20
2022-09-22T12:01:00.433Z,25.84
2022-09-22T12:02:00.803Z,26.52
2022-09-22T12:03:02.630Z,26.20
2022-09-22T12:04:01.314Z,26.19
2022-09-22T12:05:01.627Z,25.71
2022-09-22T12:06:01.976Z,25.52
2022-09-22T12:07:02.167Z,26.30
2022-09-22T12:08:02.462Z,25.87
2022-09-22T12:09:02.762Z,25.75
2022-09-22T12:10:03.129Z,24.66
2022-09-22T12:11:03.323Z,24.67
2022-09-22T12:12:03.626Z,24.79
2022-09-22T12:13:03.929Z,26.09
2022-09-22T12:14:04.243Z,25.41
2022-09-22T12:15:04.597Z,26.29
2022-09-22T12:17:05.058Z,24.88
2022-09-22T12:18:05.367Z,24.57
2022-09-22T12:19:05.759Z,24.06
2022-09-22T12:20:06.020Z,24.06
2022-09-22T12:21:06.208Z,23.65
2022-09-22T12:22:06.542Z,22.67
2022-09-22T12:23:06.849Z,23.16
2022-09-22T12:24:07.274Z,23.47
2022-09-22T12:25:08.014Z,24.30
2022-09-22T12:26:07.710Z,24.61
2022-09-22T12:27:08.049Z,25.12
2022-09-22T12:28:08.368Z,25.32
2022-09-22T12:29:08.695Z,26.21
2022-09-22T12:30:13.432Z,25.30
2022-09-22T12:31:09.312Z,24.80
2022-09-22T12:32:09.481Z,24.41
2022-09-22T12:33:09.775Z,24.69
2022-09-22T12:34:10.078Z,25.51
2022-09-22T12:35:10.392Z,25.40
2022-09-22T12:36:10.737Z,25.29
2022-09-22T12:37:11.075Z,25.07
2022-09-22T12:38:11.424Z,23.97
2022-09-22T12:39:11.646Z,24.28
2022-09-22T12:40:12.020Z,24.35
2022-09-22T12:41:12.229Z,24.80
2022-09-22T12:42:12.594Z,24.99
2022-09-22T12:43:12.780Z,25.69
2022-09-22T12:44:13.114Z,25.16
2022-09-22T12:45:13.407Z,24.78
2022-09-22T12:46:13.788Z,24.57
2022-09-22T12:48:14.293Z,24.79
2022-09-22T12:49:14.587Z,24.99
2022-09-22T12:50:14.901Z,25.45
2022-09-22T12:51:15.192Z,26.24
2022-09-22T12:52:15.513Z,26.12
2022-09-22T12:53:15.862Z,25.30
2022-09-22T12:54:16.161Z,25.57
2022-09-22T12:55:16.468Z,24.48
2022-09-22T12:56:16.779Z,25.27
2022-09-22T12:57:17.099Z,24.37
2022-09-22T12:58:17.444Z,24.48
2022-09-22T12:59:17.623Z,24.79
2022-09-22T13:00:17.921Z,24.77
2022-09-22T13:01:18.344Z,24.34
2022-09-22T13:02:18.594Z,23.33
2022-09-22T13:03:18.847Z,23.18
2022-09-22T13:04:19.040Z,23.76
2022-09-22T13:05:19.334Z,23.86
2022-09-22T13:06:19.652Z,23.79
2022-09-22T13:07:19.976Z,24.17
2022-09-22T13:08:20.314Z,24.15
2022-09-22T13:09:20.615Z,23.96
2022-09-22T13:10:20.911Z,23.99
2022-09-22T13:11:21.256Z,24.85
2022-09-22T13:12:21.554Z,24.05
2022-09-22T13:13:21.858Z,23.75
2022-09-22T13:14:22.167Z,23.64
2022-09-22T13:15:22.520Z,23.33
2022-09-22T13:16:22.771Z,22.61
2022-09-22T13:17:23.022Z,21.92
2022-09-22T13:18:23.325Z,21.64
2022-09-22T13:19:23.620Z,22.45
2022-09-22T13:20:23.918Z,22.97
2022-09-22T13:21:24.211Z,23.19
2022-09-22T13:22:24.532Z,23.46
2022-09-22T13:23:24.864Z,22.99
2022-09-22T13:24:27.496Z,23.82
2022-09-22T13:25:25.416Z,24.58
2022-09-22T13:26:25.725Z,23.88
2022-09-22T13:27:26.033Z,23.76
2022-09-22T13:28:26.392Z,22.95
2022-09-22T13:29:26.580Z,22.74
2022-09-22T13:30:26.918Z,22.92
2022-09-22T13:31:27.137Z,22.63
2022-09-22T13:32:27.444Z,22.42
2022-09-22T13:33:27.778Z,21.54
2022-09-22T13:34:28.076Z,22.02
2022-09-22T13:35:28.381Z,21.51
2022-09-22T13:36:28.711Z,21.50
2022-09-22T13:37:29.028Z,21.20
2022-09-22T13:38:29.362Z,20.46
2022-09-22T13:39:29.661Z,21.41
2022-09-22T13:40:30.007Z,21.03
2022-09-22T13:41:30.208Z,22.05
2022-09-22T13:42:30.530Z,23.27
2022-09-22T13:43:30.938Z,24.46
2022-09-22T13:44:31.182Z,24.24
2022-09-22T13:45:31.558Z,23.54
2022-09-22T13:46:31.730Z,23.79
2022-09-22T13:47:32.044Z,24.66
2022-09-22T13:48:32.347Z,24.62
2022-09-22T13:49:32.671Z,24.10
2022-09-22T13:50:32.990Z,22.65
2022-09-22T13:51:33.299Z,22.95
2022-09-22T13:52:33.612Z,23.85
2022-09-22T13:53:33.927Z,23.53
2022-09-22T13:54:34.271Z,23.50
2022-09-22T13:55:34.468Z,22.81
2022-09-22T13:56:34.782Z,22.60
2022-09-22T13:57:35.080Z,22.22
2022-09-22T13:58:35.364Z,21.91
2022-09-22T13:59:35.707Z,22.20
2022-09-22T14:00:55.211Z,22.30
2022-09-22T14:01:37.253Z,22.33
2022-09-22T14:02:36.627Z,22.53
2022-09-22T14:03:36.831Z,22.84
2022-09-22T14:04:37.170Z,23.06
2022-09-22T14:05:37.470Z,24.13
2022-09-22T14:06:37.762Z,24.62
2022-09-22T14:07:55.059Z,23.16
2022-09-22T14:08:39.412Z,23.86
2022-09-22T14:09:38.682Z,24.07
2022-09-22T14:10:39.007Z,24.57
2022-09-22T14:11:39.352Z,24.07
2022-09-22T14:12:39.533Z,24.66
2022-09-22T14:13:39.852Z,25.46
2022-09-22T14:14:40.153Z,24.87
2022-09-22T14:15:40.449Z,25.36
2022-09-22T14:16:40.858Z,25.27
2022-09-22T14:17:41.106Z,25.47
2022-09-22T14:18:42.408Z,25.86
2022-09-22T14:19:41.648Z,26.15
2022-09-22T14:20:41.962Z,26.15
2022-09-22T14:21:42.326Z,26.67
2022-09-22T14:22:42.619Z,26.48
2022-09-22T14:23:42.918Z,27.01
2022-09-22T14:24:43.257Z,27.90
2022-09-22T14:25:43.445Z,28.50
2022-09-22T14:26:43.756Z,28.92
2022-09-22T14:27:44.087Z,29.35
2022-09-22T14:28:44.315Z,30.26
2022-09-22T14:29:44.630Z,31.47
2022-09-22T14:30:44.937Z,31.89
2022-09-22T14:31:45.310Z,32.21
2022-09-22T14:32:45.525Z,32.93
2022-09-22T14:33:45.838Z,32.67
2022-09-22T14:34:46.138Z,33.84
2022-09-22T14:35:46.469Z,34.86
2022-09-22T14:36:46.804Z,36.08
2022-09-22T14:37:46.987Z,37.38
2022-09-22T14:39:01.620Z,37.71
2022-09-22T14:39:48.562Z,37.13
2022-09-22T14:40:47.837Z,38.44
2022-09-22T14:41:48.071Z,39.45
2022-09-22T14:42:48.311Z,40.76
2022-09-22T14:43:48.479Z,41.71
2022-09-22T14:44:48.774Z,42.83
2022-09-22T14:45:49.113Z,43.42
2022-09-22T14:46:49.307Z,43.13
2022-09-22T14:47:49.615Z,43.05
2022-09-22T14:48:49.812Z,42.77
2022-09-22T14:49:50.111Z,43.16
2022-09-22T14:50:50.420Z,43.16
2022-09-22T14:51:50.708Z,43.24
2022-09-22T14:52:51.032Z,43.52
2022-09-22T14:53:51.336Z,42.39
2022-09-22T14:54:51.679Z,40.78
2022-09-22T14:55:51.971Z,40.96
2022-09-22T14:56:52.274Z,41.14
2022-09-22T14:57:52.565Z,40.50
2022-09-22T14:58:52.843Z,38.98
2022-09-22T14:59:53.168Z,37.30
2022-09-22T15:00:53.500Z,37.08
2022-09-22T15:01:53.756Z,36.36
2022-09-22T15:02:53.957Z,35.04